Terminal Aerodrome Forecast
Issued by NWS Upton, NY

Home | Current Version | Previous Version | Text Only | Print | Product List | Glossary On
Versions: 1 2 3 4 5 6 7 8 9 10 11 12 13 14 15 16 17 18 19 20 21 22 23 24 25 26 27 28 29 30 31 32
000
FTUS41 KOKX 031733
TAFEWR
TAF
KEWR 031733Z 0318/0424 VRB05KT P6SM SKC
     FM031900 18006KT P6SM SCT250
     FM032100 16008KT P6SM BKN250
     FM040800 08005KT P6SM OVC100
     FM041300 04010G16KT P6SM SCT035 OVC060 PROB30 0413/0419 5SM -RA
      BKN035=

USA.gov is the U.S. government's official web portal to all federal, state and local government web resources and services.